sensor_id;sensor_type;location;lat;lon;timestamp;pressure;altitude;pressure_sealevel;temperature;humidity
74960;BME280;63518;49.572;1.106;2022-11-20T00:01:29;99363.38;;;6.37;79.67
74960;BME280;63518;49.572;1.106;2022-11-20T00:03:57;99391.69;;;6.53;81.11
74960;BME280;63518;49.572;1.106;2022-11-20T00:06:26;99391.63;;;6.48;80.87
74960;BME280;63518;49.572;1.106;2022-11-20T00:08:56;99393.59;;;6.74;79.47
74960;BME280;63518;49.572;1.106;2022-11-20T00:11:26;99387.94;;;6.37;79.69
74960;BME280;63518;49.572;1.106;2022-11-20T00:13:58;99399.06;;;6.30;81.16
74960;BME280;63518;49.572;1.106;2022-11-20T00:16:33;99399.19;;;6.40;80.21
74960;BME280;63518;49.572;1.106;2022-11-20T00:19:01;99392.91;;;6.40;79.20
74960;BME280;63518;49.572;1.106;2022-11-20T00:21:29;99370.09;;;6.29;81.41
74960;BME280;63518;49.572;1.106;2022-11-20T00:23:57;99389.78;;;6.31;80.24
74960;BME280;63518;49.572;1.106;2022-11-20T00:26:26;99380.47;;;6.49;80.41
74960;BME280;63518;49.572;1.106;2022-11-20T00:28:57;99398.03;;;6.58;79.03
74960;BME280;63518;49.572;1.106;2022-11-20T00:31:25;99395.31;;;6.36;79.84
74960;BME280;63518;49.572;1.106;2022-11-20T00:34:00;99377.41;;;6.46;79.92
74960;BME280;63518;49.572;1.106;2022-11-20T00:36:28;99386.38;;;6.41;79.88
74960;BME280;63518;49.572;1.106;2022-11-20T00:38:58;99396.25;;;6.69;78.50
74960;BME280;63518;49.572;1.106;2022-11-20T00:41:29;99400.78;;;6.36;78.26
74960;BME280;63518;49.572;1.106;2022-11-20T00:43:57;99391.00;;;6.40;79.01
74960;BME280;63518;49.572;1.106;2022-11-20T00:46:26;99389.09;;;6.41;80.40
74960;BME280;63518;49.572;1.106;2022-11-20T00:48:57;99389.97;;;6.47;79.23
74960;BME280;63518;49.572;1.106;2022-11-20T00:51:26;99382.03;;;6.67;79.79
74960;BME280;63518;49.572;1.106;2022-11-20T00:53:58;99376.38;;;6.52;78.95
74960;BME280;63518;49.572;1.106;2022-11-20T00:56:30;99384.13;;;6.38;79.86
74960;BME280;63518;49.572;1.106;2022-11-20T00:58:59;99390.75;;;6.42;78.94
74960;BME280;63518;49.572;1.106;2022-11-20T01:01:29;99360.38;;;6.38;79.38
74960;BME280;63518;49.572;1.106;2022-11-20T01:04:00;99371.38;;;6.43;79.07
74960;BME280;63518;49.572;1.106;2022-11-20T01:06:36;99389.75;;;6.48;79.26
74960;BME280;63518;49.572;1.106;2022-11-20T01:09:13;99386.84;;;6.60;80.58
74960;BME280;63518;49.572;1.106;2022-11-20T01:11:44;99399.75;;;6.64;80.11
74960;BME280;63518;49.572;1.106;2022-11-20T01:14:22;99384.09;;;6.33;79.73
74960;BME280;63518;49.572;1.106;2022-11-20T01:16:51;99393.47;;;6.64;78.12
74960;BME280;63518;49.572;1.106;2022-11-20T01:19:21;99383.94;;;6.44;79.81
74960;BME280;63518;49.572;1.106;2022-11-20T01:21:52;99371.31;;;6.38;80.39
74960;BME280;63518;49.572;1.106;2022-11-20T01:24:23;99355.09;;;6.32;80.38
74960;BME280;63518;49.572;1.106;2022-11-20T01:26:51;99378.47;;;6.44;80.55
74960;BME280;63518;49.572;1.106;2022-11-20T01:29:22;99367.00;;;6.21;80.40
74960;BME280;63518;49.572;1.106;2022-11-20T01:31:54;99361.09;;;6.29;81.61
74960;BME280;63518;49.572;1.106;2022-11-20T01:34:26;99361.97;;;6.34;79.58
74960;BME280;63518;49.572;1.106;2022-11-20T01:36:56;99350.09;;;6.24;80.77
74960;BME280;63518;49.572;1.106;2022-11-20T01:39:25;99349.28;;;6.23;80.17
74960;BME280;63518;49.572;1.106;2022-11-20T01:41:55;99354.09;;;6.16;81.21
74960;BME280;63518;49.572;1.106;2022-11-20T01:44:57;99348.91;;;6.36;80.65
74960;BME280;63518;49.572;1.106;2022-11-20T01:47:40;99327.69;;;6.43;80.93
74960;BME280;63518;49.572;1.106;2022-11-20T01:50:20;99328.41;;;6.34;81.37
74960;BME280;63518;49.572;1.106;2022-11-20T01:52:56;99327.13;;;6.41;80.63
74960;BME280;63518;49.572;1.106;2022-11-20T01:55:32;99332.63;;;6.47;79.68
74960;BME280;63518;49.572;1.106;2022-11-20T01:58:03;99327.28;;;6.57;80.58
74960;BME280;63518;49.572;1.106;2022-11-20T02:00:33;99323.47;;;6.58;80.28
74960;BME280;63518;49.572;1.106;2022-11-20T02:03:05;99327.97;;;6.47;79.48
74960;BME280;63518;49.572;1.106;2022-11-20T02:08:06;99323.31;;;6.42;80.15
74960;BME280;63518;49.572;1.106;2022-11-20T02:10:35;99327.47;;;6.50;80.90
74960;BME280;63518;49.572;1.106;2022-11-20T02:13:04;99282.91;;;6.44;79.31
74960;BME280;63518;49.572;1.106;2022-11-20T02:15:58;99307.09;;;6.58;80.19
74960;BME280;63518;49.572;1.106;2022-11-20T02:18:26;99290.00;;;6.46;79.10
74960;BME280;63518;49.572;1.106;2022-11-20T02:21:01;99309.75;;;6.53;80.29
74960;BME280;63518;49.572;1.106;2022-11-20T02:23:38;99300.28;;;6.60;79.44
74960;BME280;63518;49.572;1.106;2022-11-20T02:26:10;99293.25;;;6.69;79.65
74960;BME280;63518;49.572;1.106;2022-11-20T02:28:47;99313.00;;;6.77;78.99
74960;BME280;63518;49.572;1.106;2022-11-20T02:31:15;99315.25;;;6.85;80.02
74960;BME280;63518;49.572;1.106;2022-11-20T02:33:57;99295.72;;;6.71;79.40
74960;BME280;63518;49.572;1.106;2022-11-20T02:36:27;99310.25;;;6.71;80.17
74960;BME280;63518;49.572;1.106;2022-11-20T02:38:58;99279.09;;;6.46;79.80
74960;BME280;63518;49.572;1.106;2022-11-20T02:41:34;99306.72;;;6.49;81.14
74960;BME280;63518;49.572;1.106;2022-11-20T02:44:05;99303.31;;;6.64;80.16
74960;BME280;63518;49.572;1.106;2022-11-20T02:46:36;99291.97;;;6.50;80.68
74960;BME280;63518;49.572;1.106;2022-11-20T02:49:05;99275.50;;;6.40;80.16
74960;BME280;63518;49.572;1.106;2022-11-20T02:51:33;99273.06;;;6.43;81.11
74960;BME280;63518;49.572;1.106;2022-11-20T02:54:03;99283.34;;;6.63;79.98
74960;BME280;63518;49.572;1.106;2022-11-20T02:56:32;99266.84;;;6.48;79.27
74960;BME280;63518;49.572;1.106;2022-11-20T02:59:04;99272.59;;;6.52;78.91
74960;BME280;63518;49.572;1.106;2022-11-20T03:01:33;99268.53;;;6.54;79.67
74960;BME280;63518;49.572;1.106;2022-11-20T03:04:03;99253.06;;;6.38;80.97
74960;BME280;63518;49.572;1.106;2022-11-20T03:06:35;99250.25;;;6.28;80.11
74960;BME280;63518;49.572;1.106;2022-11-20T03:09:04;99257.22;;;6.40;80.39
74960;BME280;63518;49.572;1.106;2022-11-20T03:11:35;99259.06;;;6.35;80.43
74960;BME280;63518;49.572;1.106;2022-11-20T03:14:04;99262.88;;;6.34;81.65
74960;BME280;63518;49.572;1.106;2022-11-20T03:16:35;99245.00;;;6.48;79.53
74960;BME280;63518;49.572;1.106;2022-11-20T03:19:04;99236.66;;;6.33;81.07
74960;BME280;63518;49.572;1.106;2022-11-20T03:21:37;99222.00;;;6.44;80.22
74960;BME280;63518;49.572;1.106;2022-11-20T03:24:08;99226.47;;;6.55;80.43
74960;BME280;63518;49.572;1.106;2022-11-20T03:26:39;99220.09;;;6.44;80.21
74960;BME280;63518;49.572;1.106;2022-11-20T03:29:08;99226.66;;;6.43;79.00
74960;BME280;63518;49.572;1.106;2022-11-20T03:31:38;99229.03;;;6.35;80.16
74960;BME280;63518;49.572;1.106;2022-11-20T03:34:10;99222.75;;;6.39;80.77
74960;BME280;63518;49.572;1.106;2022-11-20T03:36:43;99213.41;;;6.30;81.22
74960;BME280;63518;49.572;1.106;2022-11-20T03:39:11;99201.22;;;6.16;80.40
74960;BME280;63518;49.572;1.106;2022-11-20T03:41:41;99204.38;;;6.30;79.86
74960;BME280;63518;49.572;1.106;2022-11-20T03:44:11;99214.56;;;6.39;80.35
74960;BME280;63518;49.572;1.106;2022-11-20T03:46:42;99199.13;;;6.23;80.05
74960;BME280;63518;49.572;1.106;2022-11-20T03:49:12;99203.00;;;6.27;80.04
74960;BME280;63518;49.572;1.106;2022-11-20T03:51:40;99190.19;;;6.28;81.52
74960;BME280;63518;49.572;1.106;2022-11-20T03:54:09;99184.84;;;6.16;81.03
74960;BME280;63518;49.572;1.106;2022-11-20T03:56:40;99177.13;;;6.08;81.29
74960;BME280;63518;49.572;1.106;2022-11-20T03:59:13;99170.66;;;6.14;80.64
74960;BME280;63518;49.572;1.106;2022-11-20T04:01:43;99184.78;;;6.33;80.03
74960;BME280;63518;49.572;1.106;2022-11-20T04:04:17;99174.56;;;6.23;81.37
74960;BME280;63518;49.572;1.106;2022-11-20T04:06:46;99179.88;;;6.35;81.21
74960;BME280;63518;49.572;1.106;2022-11-20T04:09:17;99183.81;;;6.49;80.16
74960;BME280;63518;49.572;1.106;2022-11-20T04:11:47;99169.97;;;6.29;81.44
74960;BME280;63518;49.572;1.106;2022-11-20T04:14:16;99165.66;;;6.33;81.21
74960;BME280;63518;49.572;1.106;2022-11-20T04:16:53;99161.31;;;6.37;81.76
74960;BME280;63518;49.572;1.106;2022-11-20T04:19:27;99166.13;;;6.25;82.09
74960;BME280;63518;49.572;1.106;2022-11-20T04:21:56;99178.97;;;6.56;80.36
74960;BME280;63518;49.572;1.106;2022-11-20T04:24:24;99176.97;;;6.47;80.72
74960;BME280;63518;49.572;1.106;2022-11-20T04:26:52;99160.97;;;6.28;81.07
74960;BME280;63518;49.572;1.106;2022-11-20T04:29:21;99165.69;;;6.38;81.04
74960;BME280;63518;49.572;1.106;2022-11-20T04:31:51;99156.31;;;6.29;80.89
74960;BME280;63518;49.572;1.106;2022-11-20T04:34:19;99155.91;;;6.42;81.57
74960;BME280;63518;49.572;1.106;2022-11-20T04:36:47;99167.94;;;6.46;81.51
74960;BME280;63518;49.572;1.106;2022-11-20T04:39:18;99143.16;;;6.21;80.34
74960;BME280;63518;49.572;1.106;2022-11-20T04:41:56;99163.84;;;6.43;80.56
74960;BME280;63518;49.572;1.106;2022-11-20T04:44:43;99164.19;;;6.52;80.59
74960;BME280;63518;49.572;1.106;2022-11-20T04:47:11;99164.66;;;6.44;81.92
74960;BME280;63518;49.572;1.106;2022-11-20T04:49:39;99153.44;;;6.40;82.07
74960;BME280;63518;49.572;1.106;2022-11-20T04:52:10;99141.91;;;6.33;82.43
74960;BME280;63518;49.572;1.106;2022-11-20T04:54:38;99144.59;;;6.28;82.06
74960;BME280;63518;49.572;1.106;2022-11-20T04:57:08;99138.13;;;6.39;80.95
74960;BME280;63518;49.572;1.106;2022-11-20T04:59:41;99143.03;;;6.37;82.16
74960;BME280;63518;49.572;1.106;2022-11-20T05:02:10;99147.75;;;6.47;81.23
74960;BME280;63518;49.572;1.106;2022-11-20T05:04:38;99130.91;;;6.60;80.97
74960;BME280;63518;49.572;1.106;2022-11-20T05:07:06;99138.03;;;6.61;80.23
74960;BME280;63518;49.572;1.106;2022-11-20T05:09:40;99148.47;;;6.69;80.16
74960;BME280;63518;49.572;1.106;2022-11-20T05:12:09;99141.03;;;6.60;80.57
74960;BME280;63518;49.572;1.106;2022-11-20T05:14:38;99137.81;;;6.36;80.88
74960;BME280;63518;49.572;1.106;2022-11-20T05:17:19;99139.31;;;6.49;80.78
74960;BME280;63518;49.572;1.106;2022-11-20T05:19:48;99129.22;;;6.54;80.44
74960;BME280;63518;49.572;1.106;2022-11-20T05:22:35;99122.13;;;6.53;80.22
74960;BME280;63518;49.572;1.106;2022-11-20T05:25:16;99125.41;;;6.55;79.94
74960;BME280;63518;49.572;1.106;2022-11-20T05:27:44;99139.19;;;6.70;79.56
74960;BME280;63518;49.572;1.106;2022-11-20T05:30:12;99130.38;;;6.63;79.55
74960;BME280;63518;49.572;1.106;2022-11-20T05:32:57;99141.78;;;6.55;80.52
74960;BME280;63518;49.572;1.106;2022-11-20T05:35:33;99138.34;;;6.65;81.03
74960;BME280;63518;49.572;1.106;2022-11-20T05:38:23;99137.53;;;6.69;80.87
74960;BME280;63518;49.572;1.106;2022-11-20T05:40:51;99126.88;;;6.68;80.58
74960;BME280;63518;49.572;1.106;2022-11-20T05:43:36;99131.06;;;6.81;79.91
74960;BME280;63518;49.572;1.106;2022-11-20T05:46:05;99119.84;;;6.40;80.30
74960;BME280;63518;49.572;1.106;2022-11-20T05:48:36;99124.09;;;6.58;79.91
74960;BME280;63518;49.572;1.106;2022-11-20T05:51:09;99117.31;;;6.65;81.17
74960;BME280;63518;49.572;1.106;2022-11-20T05:53:38;99125.53;;;6.70;79.89
74960;BME280;63518;49.572;1.106;2022-11-20T05:56:28;99120.16;;;6.43;82.05
74960;BME280;63518;49.572;1.106;2022-11-20T05:58:59;99110.25;;;6.32;82.49
74960;BME280;63518;49.572;1.106;2022-11-20T06:01:28;99107.72;;;6.63;82.17
74960;BME280;63518;49.572;1.106;2022-11-20T06:03:56;99104.03;;;6.47;81.56
74960;BME280;63518;49.572;1.106;2022-11-20T06:06:25;99106.06;;;6.57;82.10
74960;BME280;63518;49.572;1.106;2022-11-20T06:08:55;99120.91;;;6.39;82.34
74960;BME280;63518;49.572;1.106;2022-11-20T06:11:23;99104.88;;;6.48;83.08
74960;BME280;63518;49.572;1.106;2022-11-20T06:13:53;99111.81;;;6.60;82.24
74960;BME280;63518;49.572;1.106;2022-11-20T06:16:23;99118.13;;;6.66;81.19
74960;BME280;63518;49.572;1.106;2022-11-20T06:18:52;99103.38;;;6.67;82.33
74960;BME280;63518;49.572;1.106;2022-11-20T06:21:22;99099.50;;;6.58;81.84
74960;BME280;63518;49.572;1.106;2022-11-20T06:23:53;99096.88;;;6.73;81.92
74960;BME280;63518;49.572;1.106;2022-11-20T06:26:26;99105.53;;;6.60;81.57
74960;BME280;63518;49.572;1.106;2022-11-20T06:28:58;99102.41;;;6.83;82.15
74960;BME280;63518;49.572;1.106;2022-11-20T06:31:29;99092.16;;;6.63;81.41
74960;BME280;63518;49.572;1.106;2022-11-20T06:34:06;99090.00;;;6.65;82.25
74960;BME280;63518;49.572;1.106;2022-11-20T06:36:37;99090.81;;;6.66;82.88
74960;BME280;63518;49.572;1.106;2022-11-20T06:39:08;99097.91;;;6.67;81.50
74960;BME280;63518;49.572;1.106;2022-11-20T06:41:37;99088.94;;;6.71;81.72
74960;BME280;63518;49.572;1.106;2022-11-20T06:44:06;99076.25;;;6.55;82.77
74960;BME280;63518;49.572;1.106;2022-11-20T06:46:34;99080.41;;;6.63;83.41
74960;BME280;63518;49.572;1.106;2022-11-20T06:49:05;99079.47;;;6.47;82.04
74960;BME280;63518;49.572;1.106;2022-11-20T06:51:34;99099.88;;;6.71;83.57
74960;BME280;63518;49.572;1.106;2022-11-20T06:54:03;99111.84;;;6.65;82.23
74960;BME280;63518;49.572;1.106;2022-11-20T06:56:31;99098.28;;;6.81;82.47
74960;BME280;63518;49.572;1.106;2022-11-20T06:59:04;99102.94;;;6.80;82.30
74960;BME280;63518;49.572;1.106;2022-11-20T07:01:35;99100.94;;;6.70;82.91
74960;BME280;63518;49.572;1.106;2022-11-20T07:04:03;99100.44;;;6.74;83.00
74960;BME280;63518;49.572;1.106;2022-11-20T07:06:32;99099.66;;;6.83;83.15
74960;BME280;63518;49.572;1.106;2022-11-20T07:09:00;99075.59;;;6.38;83.73
74960;BME280;63518;49.572;1.106;2022-11-20T07:11:30;99100.69;;;6.72;83.24
74960;BME280;63518;49.572;1.106;2022-11-20T07:14:00;99109.31;;;6.96;82.35
74960;BME280;63518;49.572;1.106;2022-11-20T07:16:29;99088.41;;;6.75;83.02
74960;BME280;63518;49.572;1.106;2022-11-20T07:18:58;99103.22;;;6.84;83.05
74960;BME280;63518;49.572;1.106;2022-11-20T07:21:26;99097.88;;;6.62;84.14
74960;BME280;63518;49.572;1.106;2022-11-20T07:23:55;99060.47;;;6.62;84.15
74960;BME280;63518;49.572;1.106;2022-11-20T07:26:26;99075.06;;;6.83;83.98
74960;BME280;63518;49.572;1.106;2022-11-20T07:28:57;99084.13;;;6.89;84.33
74960;BME280;63518;49.572;1.106;2022-11-20T07:31:26;99071.75;;;6.76;83.40
74960;BME280;63518;49.572;1.106;2022-11-20T07:34:00;99062.19;;;6.79;83.98
74960;BME280;63518;49.572;1.106;2022-11-20T07:36:28;99059.50;;;6.84;83.98
74960;BME280;63518;49.572;1.106;2022-11-20T07:38:58;99045.25;;;6.77;84.20
74960;BME280;63518;49.572;1.106;2022-11-20T07:41:26;99043.97;;;6.89;83.75
74960;BME280;63518;49.572;1.106;2022-11-20T07:43:55;99042.00;;;6.85;84.60
74960;BME280;63518;49.572;1.106;2022-11-20T07:46:24;99046.38;;;6.86;84.18
74960;BME280;63518;49.572;1.106;2022-11-20T07:48:53;99020.69;;;6.87;84.73
74960;BME280;63518;49.572;1.106;2022-11-20T07:51:21;99044.34;;;7.13;83.39
74960;BME280;63518;49.572;1.106;2022-11-20T07:53:51;99039.97;;;7.12;84.05
74960;BME280;63518;49.572;1.106;2022-11-20T07:56:20;99039.94;;;7.07;83.56
74960;BME280;63518;49.572;1.106;2022-11-20T07:58:51;99027.25;;;6.81;84.91
74960;BME280;63518;49.572;1.106;2022-11-20T08:01:19;99035.03;;;7.14;83.57
74960;BME280;63518;49.572;1.106;2022-11-20T08:03:47;99033.84;;;6.95;83.44
74960;BME280;63518;49.572;1.106;2022-11-20T08:06:16;99025.41;;;6.96;84.26
74960;BME280;63518;49.572;1.106;2022-11-20T08:08:45;99031.09;;;6.85;84.48
74960;BME280;63518;49.572;1.106;2022-11-20T08:11:16;99035.75;;;6.89;85.00
74960;BME280;63518;49.572;1.106;2022-11-20T08:14:04;99028.34;;;6.80;85.66
74960;BME280;63518;49.572;1.106;2022-11-20T08:16:46;99025.69;;;7.00;85.67
74960;BME280;63518;49.572;1.106;2022-11-20T08:19:17;99012.09;;;7.20;83.67
74960;BME280;63518;49.572;1.106;2022-11-20T08:21:48;98981.75;;;7.12;84.66
74960;BME280;63518;49.572;1.106;2022-11-20T08:24:17;99004.94;;;7.09;84.97
74960;BME280;63518;49.572;1.106;2022-11-20T08:26:48;99010.72;;;7.13;85.10
74960;BME280;63518;49.572;1.106;2022-11-20T08:29:16;99007.25;;;7.43;83.15
74960;BME280;63518;49.572;1.106;2022-11-20T08:31:45;98978.94;;;6.91;84.64
74960;BME280;63518;49.572;1.106;2022-11-20T08:34:12;99006.41;;;7.42;84.03
74960;BME280;63518;49.572;1.106;2022-11-20T08:36:46;99003.41;;;7.44;84.23
74960;BME280;63518;49.572;1.106;2022-11-20T08:39:14;99011.81;;;7.17;85.18
74960;BME280;63518;49.572;1.106;2022-11-20T08:41:43;98980.94;;;7.26;84.35
74960;BME280;63518;49.572;1.106;2022-11-20T08:44:13;99002.56;;;7.28;85.02
74960;BME280;63518;49.572;1.106;2022-11-20T08:46:46;99012.19;;;7.56;83.77
74960;BME280;63518;49.572;1.106;2022-11-20T08:49:21;99002.06;;;7.56;84.49
74960;BME280;63518;49.572;1.106;2022-11-20T08:52:17;99012.16;;;7.36;84.75
74960;BME280;63518;49.572;1.106;2022-11-20T08:54:52;99012.41;;;7.39;84.31
74960;BME280;63518;49.572;1.106;2022-11-20T08:57:26;98998.78;;;7.54;83.39
74960;BME280;63518;49.572;1.106;2022-11-20T08:59:55;99000.69;;;7.54;83.21
74960;BME280;63518;49.572;1.106;2022-11-20T09:02:40;99007.50;;;7.46;83.93
74960;BME280;63518;49.572;1.106;2022-11-20T09:05:09;99015.97;;;7.35;83.98
74960;BME280;63518;49.572;1.106;2022-11-20T09:07:40;99005.06;;;7.45;84.64
74960;BME280;63518;49.572;1.106;2022-11-20T09:10:10;99005.91;;;7.71;83.85
74960;BME280;63518;49.572;1.106;2022-11-20T09:12:52;98988.09;;;7.43;84.51
74960;BME280;63518;49.572;1.106;2022-11-20T09:15:25;98997.38;;;7.42;84.42
74960;BME280;63518;49.572;1.106;2022-11-20T09:17:58;98995.25;;;7.69;83.30
74960;BME280;63518;49.572;1.106;2022-11-20T09:20:30;98997.41;;;7.72;83.17
74960;BME280;63518;49.572;1.106;2022-11-20T09:22:59;98990.88;;;7.68;84.10
74960;BME280;63518;49.572;1.106;2022-11-20T09:25:27;98991.16;;;7.67;84.22
74960;BME280;63518;49.572;1.106;2022-11-20T09:27:58;98975.28;;;7.59;84.08
74960;BME280;63518;49.572;1.106;2022-11-20T09:30:27;98996.34;;;7.78;84.45
74960;BME280;63518;49.572;1.106;2022-11-20T09:32:56;98986.22;;;7.84;83.07
74960;BME280;63518;49.572;1.106;2022-11-20T09:35:24;98988.13;;;7.89;82.49
74960;BME280;63518;49.572;1.106;2022-11-20T09:37:52;98990.03;;;7.68;84.01
74960;BME280;63518;49.572;1.106;2022-11-20T09:40:23;98984.00;;;7.81;83.26
74960;BME280;63518;49.572;1.106;2022-11-20T09:43:17;98975.00;;;8.01;82.68
74960;BME280;63518;49.572;1.106;2022-11-20T09:46:17;98987.31;;;7.93;83.17
74960;BME280;63518;49.572;1.106;2022-11-20T09:51:39;98979.91;;;7.73;84.29
74960;BME280;63518;49.572;1.106;2022-11-20T09:54:20;98962.41;;;7.69;84.21
74960;BME280;63518;49.572;1.106;2022-11-20T09:57:41;98972.81;;;7.82;83.35
74960;BME280;63518;49.572;1.106;2022-11-20T09:59:55;98986.50;;;7.77;84.21
74960;BME280;63518;49.572;1.106;2022-11-20T10:08:17;98997.44;;;8.08;83.53
74960;BME280;63518;49.572;1.106;2022-11-20T10:11:05;98979.34;;;8.27;83.46
74960;BME280;63518;49.572;1.106;2022-11-20T10:13:47;98987.84;;;8.10;83.79
74960;BME280;63518;49.572;1.106;2022-11-20T10:16:51;98990.81;;;8.29;83.73
74960;BME280;63518;49.572;1.106;2022-11-20T10:19:55;98991.41;;;8.42;84.23
74960;BME280;63518;49.572;1.106;2022-11-20T10:25:20;98962.06;;;8.42;82.65
74960;BME280;63518;49.572;1.106;2022-11-20T10:30:23;98981.78;;;8.49;82.63
74960;BME280;63518;49.572;1.106;2022-11-20T10:33:00;98986.13;;;8.71;81.20
74960;BME280;63518;49.572;1.106;2022-11-20T10:35:44;98987.56;;;8.48;82.36
74960;BME280;63518;49.572;1.106;2022-11-20T10:38:34;98977.91;;;8.71;83.16
74960;BME280;63518;49.572;1.106;2022-11-20T10:41:06;98988.00;;;8.85;82.40
74960;BME280;63518;49.572;1.106;2022-11-20T10:44:16;98991.31;;;8.72;83.24
74960;BME280;63518;49.572;1.106;2022-11-20T10:47:05;98996.69;;;9.03;80.76
74960;BME280;63518;49.572;1.106;2022-11-20T10:49:34;98992.16;;;8.67;81.91
74960;BME280;63518;49.572;1.106;2022-11-20T11:00:26;98961.69;;;8.74;83.90
74960;BME280;63518;49.572;1.106;2022-11-20T11:02:54;98974.63;;;9.23;82.98
74960;BME280;63518;49.572;1.106;2022-11-20T11:08:14;98965.06;;;9.65;81.44
74960;BME280;63518;49.572;1.106;2022-11-20T11:10:57;98979.50;;;9.75;80.21
74960;BME280;63518;49.572;1.106;2022-11-20T11:13:30;98981.75;;;10.02;80.52
74960;BME280;63518;49.572;1.106;2022-11-20T11:16:01;98964.97;;;9.75;80.91
74960;BME280;63518;49.572;1.106;2022-11-20T11:18:34;98979.88;;;10.32;79.75
74960;BME280;63518;49.572;1.106;2022-11-20T11:21:05;98969.63;;;10.08;80.83
74960;BME280;63518;49.572;1.106;2022-11-20T11:23:37;98979.13;;;9.87;82.33
74960;BME280;63518;49.572;1.106;2022-11-20T11:26:22;98965.06;;;9.94;80.34
74960;BME280;63518;49.572;1.106;2022-11-20T11:29:01;98982.31;;;10.04;80.97
74960;BME280;63518;49.572;1.106;2022-11-20T11:31:34;98970.69;;;10.13;79.59
74960;BME280;63518;49.572;1.106;2022-11-20T11:34:05;98969.88;;;9.78;80.21
74960;BME280;63518;49.572;1.106;2022-11-20T11:36:34;98963.19;;;10.18;78.97
74960;BME280;63518;49.572;1.106;2022-11-20T11:39:04;98958.06;;;10.41;80.67
74960;BME280;63518;49.572;1.106;2022-11-20T11:41:34;98954.69;;;10.20;79.51
74960;BME280;63518;49.572;1.106;2022-11-20T11:44:26;98948.31;;;10.29;79.30
74960;BME280;63518;49.572;1.106;2022-11-20T11:47:30;98947.53;;;10.19;80.43
74960;BME280;63518;49.572;1.106;2022-11-20T11:50:20;98948.69;;;10.89;78.89
74960;BME280;63518;49.572;1.106;2022-11-20T11:55:51;98943.59;;;11.02;79.77
74960;BME280;63518;49.572;1.106;2022-11-20T12:01:25;98957.66;;;11.00;75.92
74960;BME280;63518;49.572;1.106;2022-11-20T12:04:02;98946.09;;;11.22;77.86
74960;BME280;63518;49.572;1.106;2022-11-20T12:06:32;98956.91;;;10.95;79.13
74960;BME280;63518;49.572;1.106;2022-11-20T12:09:08;98949.00;;;10.88;80.31
74960;BME280;63518;49.572;1.106;2022-11-20T12:11:43;98961.22;;;11.01;75.56
74960;BME280;63518;49.572;1.106;2022-11-20T12:14:19;98953.31;;;11.56;74.87
74960;BME280;63518;49.572;1.106;2022-11-20T12:16:51;98960.00;;;11.31;74.45
74960;BME280;63518;49.572;1.106;2022-11-20T12:19:19;98948.00;;;11.22;74.60
74960;BME280;63518;49.572;1.106;2022-11-20T12:27:25;98955.84;;;11.33;70.73
74960;BME280;63518;49.572;1.106;2022-11-20T12:43:01;98936.16;;;11.02;64.52
74960;BME280;63518;49.572;1.106;2022-11-20T13:00:16;98944.22;;;10.99;67.75
74960;BME280;63518;49.572;1.106;2022-11-20T13:05:54;98959.47;;;11.66;65.93
74960;BME280;63518;49.572;1.106;2022-11-20T13:16:52;98968.63;;;11.62;65.26
74960;BME280;63518;49.572;1.106;2022-11-20T13:19:28;98961.16;;;11.06;66.07
74960;BME280;63518;49.572;1.106;2022-11-20T13:21:59;98974.72;;;11.59;64.97
74960;BME280;63518;49.572;1.106;2022-11-20T13:24:35;98983.50;;;11.80;64.71
74960;BME280;63518;49.572;1.106;2022-11-20T13:35:41;98968.63;;;11.43;65.58
74960;BME280;63518;49.572;1.106;2022-11-20T13:38:11;98958.81;;;11.56;65.75
74960;BME280;63518;49.572;1.106;2022-11-20T13:40:58;98963.72;;;11.40;66.71
74960;BME280;63518;49.572;1.106;2022-11-20T13:44:05;98965.81;;;11.86;66.12
74960;BME280;63518;49.572;1.106;2022-11-20T13:46:46;98954.91;;;11.75;66.37
74960;BME280;63518;49.572;1.106;2022-11-20T13:49:37;98975.41;;;11.69;65.50
74960;BME280;63518;49.572;1.106;2022-11-20T13:52:50;98982.63;;;11.84;63.92
74960;BME280;63518;49.572;1.106;2022-11-20T13:58:54;98982.16;;;11.58;65.51
74960;BME280;63518;49.572;1.106;2022-11-20T14:01:31;98960.50;;;11.70;64.99
74960;BME280;63518;49.572;1.106;2022-11-20T14:04:05;98973.97;;;12.10;65.31
74960;BME280;63518;49.572;1.106;2022-11-20T14:06:42;98983.94;;;12.06;66.44
74960;BME280;63518;49.572;1.106;2022-11-20T14:09:12;98991.63;;;12.09;66.40
74960;BME280;63518;49.572;1.106;2022-11-20T14:11:46;98989.25;;;12.16;66.76
74960;BME280;63518;49.572;1.106;2022-11-20T14:14:19;98987.97;;;11.75;64.53
74960;BME280;63518;49.572;1.106;2022-11-20T14:16:49;98979.28;;;11.87;67.16
74960;BME280;63518;49.572;1.106;2022-11-20T14:21:49;98981.44;;;11.71;68.27
74960;BME280;63518;49.572;1.106;2022-11-20T14:24:20;98987.09;;;11.61;68.34
74960;BME280;63518;49.572;1.106;2022-11-20T14:26:52;98981.44;;;11.71;68.00
74960;BME280;63518;49.572;1.106;2022-11-20T14:29:21;99004.84;;;11.69;67.21
74960;BME280;63518;49.572;1.106;2022-11-20T14:31:53;98988.34;;;11.50;68.11
74960;BME280;63518;49.572;1.106;2022-11-20T14:34:25;99001.88;;;11.65;66.17
74960;BME280;63518;49.572;1.106;2022-11-20T14:37:01;99004.59;;;11.70;67.11
74960;BME280;63518;49.572;1.106;2022-11-20T14:39:54;99001.50;;;11.53;67.68
74960;BME280;63518;49.572;1.106;2022-11-20T14:42:26;99005.22;;;11.43;70.14
74960;BME280;63518;49.572;1.106;2022-11-20T14:44:56;99012.84;;;11.70;69.29
74960;BME280;63518;49.572;1.106;2022-11-20T14:47:27;99011.50;;;11.49;69.27
74960;BME280;63518;49.572;1.106;2022-11-20T14:49:57;99020.38;;;11.84;66.72
74960;BME280;63518;49.572;1.106;2022-11-20T14:52:27;99012.75;;;11.75;67.49
74960;BME280;63518;49.572;1.106;2022-11-20T14:54:58;99018.25;;;11.38;68.66
74960;BME280;63518;49.572;1.106;2022-11-20T14:57:35;99010.97;;;11.04;69.83
74960;BME280;63518;49.572;1.106;2022-11-20T15:00:19;99013.22;;;11.21;68.54
74960;BME280;63518;49.572;1.106;2022-11-20T15:02:51;99009.78;;;11.10;70.83
74960;BME280;63518;49.572;1.106;2022-11-20T15:05:22;99005.06;;;11.16;69.51
74960;BME280;63518;49.572;1.106;2022-11-20T15:08:07;98999.81;;;11.57;70.00
74960;BME280;63518;49.572;1.106;2022-11-20T15:10:35;99010.44;;;11.45;69.61
74960;BME280;63518;49.572;1.106;2022-11-20T15:13:12;99008.13;;;11.52;68.55
74960;BME280;63518;49.572;1.106;2022-11-20T15:15:46;99020.03;;;11.66;68.60